sensor_id;sensor_type;location;lat;lon;timestamp;pressure;altitude;pressure_sealevel;temperature;humidity
82418;BME280;72059;53.734;10.260;2023-12-22T00:02:20;98208.21;;;3.84;60.24
82418;BME280;72059;53.734;10.260;2023-12-22T00:04:49;98203.97;;;3.84;60.45
82418;BME280;72059;53.734;10.260;2023-12-22T00:07:17;98211.24;;;3.85;60.34
82418;BME280;72059;53.734;10.260;2023-12-22T00:09:46;98213.80;;;3.85;60.52
82418;BME280;72059;53.734;10.260;2023-12-22T00:12:13;98224.55;;;3.89;60.63
82418;BME280;72059;53.734;10.260;2023-12-22T00:14:41;98218.22;;;3.94;59.96
82418;BME280;72059;53.734;10.260;2023-12-22T00:17:08;98220.75;;;3.92;60.44
82418;BME280;72059;53.734;10.260;2023-12-22T00:19:36;98223.38;;;3.95;59.48
82418;BME280;72059;53.734;10.260;2023-12-22T00:22:03;98228.93;;;3.95;60.09
82418;BME280;72059;53.734;10.260;2023-12-22T00:24:31;98224.69;;;3.97;59.93
82418;BME280;72059;53.734;10.260;2023-12-22T00:26:58;98237.82;;;3.92;60.69
82418;BME280;72059;53.734;10.260;2023-12-22T00:29:25;98241.16;;;3.88;61.08
82418;BME280;72059;53.734;10.260;2023-12-22T00:31:55;98240.64;;;3.83;61.57
82418;BME280;72059;53.734;10.260;2023-12-22T00:34:23;98251.66;;;3.81;61.85
82418;BME280;72059;53.734;10.260;2023-12-22T00:36:50;98259.00;;;3.84;61.76
82418;BME280;72059;53.734;10.260;2023-12-22T00:39:17;98262.47;;;3.88;60.60
82418;BME280;72059;53.734;10.260;2023-12-22T00:41:45;98246.01;;;3.96;59.48
82418;BME280;72059;53.734;10.260;2023-12-22T00:44:12;98254.30;;;4.05;58.93
82418;BME280;72059;53.734;10.260;2023-12-22T00:46:40;98274.48;;;4.11;57.99
82418;BME280;72059;53.734;10.260;2023-12-22T00:49:07;98252.38;;;4.17;55.66
82418;BME280;72059;53.734;10.260;2023-12-22T00:51:34;98256.63;;;4.15;56.51
82418;BME280;72059;53.734;10.260;2023-12-22T00:54:02;98264.61;;;4.09;57.66
82418;BME280;72059;53.734;10.260;2023-12-22T00:56:30;98260.53;;;3.97;59.03
82418;BME280;72059;53.734;10.260;2023-12-22T00:58:57;98280.47;;;3.91;60.26
82418;BME280;72059;53.734;10.260;2023-12-22T01:01:24;98276.52;;;3.86;61.64
82418;BME280;72059;53.734;10.260;2023-12-22T01:03:52;98278.05;;;3.78;62.24
82418;BME280;72059;53.734;10.260;2023-12-22T01:06:19;98273.63;;;3.71;62.28
82418;BME280;72059;53.734;10.260;2023-12-22T01:08:47;98279.15;;;3.69;63.06
82418;BME280;72059;53.734;10.260;2023-12-22T01:11:19;98276.08;;;3.65;63.99
82418;BME280;72059;53.734;10.260;2023-12-22T01:13:46;98290.04;;;3.60;64.55
82418;BME280;72059;53.734;10.260;2023-12-22T01:16:13;98269.93;;;3.56;64.77
82418;BME280;72059;53.734;10.260;2023-12-22T01:18:41;98272.97;;;3.59;64.75
82418;BME280;72059;53.734;10.260;2023-12-22T01:21:10;98273.84;;;3.61;64.90
82418;BME280;72059;53.734;10.260;2023-12-22T01:23:38;98264.93;;;3.63;65.17
82418;BME280;72059;53.734;10.260;2023-12-22T01:26:05;98270.56;;;3.67;65.18
82418;BME280;72059;53.734;10.260;2023-12-22T01:28:34;98275.38;;;3.72;65.42
82418;BME280;72059;53.734;10.260;2023-12-22T01:31:02;98277.61;;;3.77;65.37
82418;BME280;72059;53.734;10.260;2023-12-22T01:33:29;98278.16;;;3.83;65.17
82418;BME280;72059;53.734;10.260;2023-12-22T01:35:57;98292.78;;;3.89;64.86
82418;BME280;72059;53.734;10.260;2023-12-22T01:38:24;98303.58;;;3.94;65.09
82418;BME280;72059;53.734;10.260;2023-12-22T01:40:51;98310.05;;;3.97;66.29
82418;BME280;72059;53.734;10.260;2023-12-22T01:43:19;98302.84;;;4.00;67.91
82418;BME280;72059;53.734;10.260;2023-12-22T01:45:55;98301.38;;;3.92;69.42
82418;BME280;72059;53.734;10.260;2023-12-22T01:48:26;98309.32;;;3.84;70.29
82418;BME280;72059;53.734;10.260;2023-12-22T01:50:56;98318.93;;;3.75;71.61
82418;BME280;72059;53.734;10.260;2023-12-22T01:53:25;98322.54;;;3.64;73.05
82418;BME280;72059;53.734;10.260;2023-12-22T01:55:55;98305.67;;;3.53;75.28
82418;BME280;72059;53.734;10.260;2023-12-22T01:58:26;98303.69;;;3.41;76.30
82418;BME280;72059;53.734;10.260;2023-12-22T02:00:55;98304.31;;;3.31;77.14
82418;BME280;72059;53.734;10.260;2023-12-22T02:03:23;98306.95;;;3.16;77.93
82418;BME280;72059;53.734;10.260;2023-12-22T02:05:51;98303.27;;;3.05;78.47
82418;BME280;72059;53.734;10.260;2023-12-22T02:08:19;98292.27;;;2.91;78.94
82418;BME280;72059;53.734;10.260;2023-12-22T02:10:49;98296.23;;;2.80;78.91
82418;BME280;72059;53.734;10.260;2023-12-22T02:13:16;98301.21;;;2.74;79.30
82418;BME280;72059;53.734;10.260;2023-12-22T02:15:43;98319.41;;;2.70;79.42
82418;BME280;72059;53.734;10.260;2023-12-22T02:18:18;98307.59;;;2.74;79.29
82418;BME280;72059;53.734;10.260;2023-12-22T02:20:46;98315.75;;;2.76;79.29
82418;BME280;72059;53.734;10.260;2023-12-22T02:23:13;98323.07;;;2.80;79.66
82418;BME280;72059;53.734;10.260;2023-12-22T02:25:41;98323.50;;;2.79;80.49
82418;BME280;72059;53.734;10.260;2023-12-22T02:28:11;98325.09;;;2.76;81.21
82418;BME280;72059;53.734;10.260;2023-12-22T02:30:49;98331.43;;;2.73;82.04
82418;BME280;72059;53.734;10.260;2023-12-22T02:33:16;98333.32;;;2.64;83.57
82418;BME280;72059;53.734;10.260;2023-12-22T02:35:44;98317.14;;;2.49;84.58
82418;BME280;72059;53.734;10.260;2023-12-22T02:38:13;98297.95;;;2.31;85.68
82418;BME280;72059;53.734;10.260;2023-12-22T02:40:43;98293.22;;;2.13;86.48
82418;BME280;72059;53.734;10.260;2023-12-22T02:43:11;98307.61;;;1.96;87.69
82418;BME280;72059;53.734;10.260;2023-12-22T02:45:38;98310.64;;;1.83;88.31
82418;BME280;72059;53.734;10.260;2023-12-22T02:48:06;98311.08;;;1.69;89.15
82418;BME280;72059;53.734;10.260;2023-12-22T02:50:33;98315.03;;;1.59;89.37
82418;BME280;72059;53.734;10.260;2023-12-22T02:53:01;98309.71;;;1.51;89.90
82418;BME280;72059;53.734;10.260;2023-12-22T02:55:28;98309.45;;;1.44;90.50
82418;BME280;72059;53.734;10.260;2023-12-22T02:57:56;98318.36;;;1.42;90.86
82418;BME280;72059;53.734;10.260;2023-12-22T03:00:23;98340.93;;;1.44;91.11
82418;BME280;72059;53.734;10.260;2023-12-22T03:02:50;98339.44;;;1.51;91.15
82418;BME280;72059;53.734;10.260;2023-12-22T03:05:18;98330.77;;;1.59;90.55
82418;BME280;72059;53.734;10.260;2023-12-22T03:07:45;98324.73;;;1.57;89.00
82418;BME280;72059;53.734;10.260;2023-12-22T03:10:13;98323.63;;;1.48;89.38
82418;BME280;72059;53.734;10.260;2023-12-22T03:12:40;98313.94;;;1.36;90.64
82418;BME280;72059;53.734;10.260;2023-12-22T03:15:08;98308.13;;;1.27;91.47
82418;BME280;72059;53.734;10.260;2023-12-22T03:17:35;98296.72;;;1.16;91.54
82418;BME280;72059;53.734;10.260;2023-12-22T03:20:03;98296.83;;;1.06;91.66
82418;BME280;72059;53.734;10.260;2023-12-22T03:22:30;98300.00;;;0.99;91.80
82418;BME280;72059;53.734;10.260;2023-12-22T03:24:58;98297.71;;;0.94;91.70
82418;BME280;72059;53.734;10.260;2023-12-22T03:27:25;98289.52;;;0.89;91.69
82418;BME280;72059;53.734;10.260;2023-12-22T03:29:53;98302.54;;;0.86;91.75
82418;BME280;72059;53.734;10.260;2023-12-22T03:32:20;98310.89;;;0.82;91.58
82418;BME280;72059;53.734;10.260;2023-12-22T03:34:48;98301.98;;;0.82;91.28
82418;BME280;72059;53.734;10.260;2023-12-22T03:37:15;98293.52;;;0.83;90.37
82418;BME280;72059;53.734;10.260;2023-12-22T03:39:43;98309.30;;;0.85;89.89
82418;BME280;72059;53.734;10.260;2023-12-22T03:42:10;98311.00;;;0.85;89.75
82418;BME280;72059;53.734;10.260;2023-12-22T03:44:37;98308.80;;;0.83;89.72
82418;BME280;72059;53.734;10.260;2023-12-22T03:47:05;98305.48;;;0.85;89.02
82418;BME280;72059;53.734;10.260;2023-12-22T03:49:32;98311.83;;;0.84;89.22
82418;BME280;72059;53.734;10.260;2023-12-22T03:52:00;98311.00;;;0.85;89.41
82418;BME280;72059;53.734;10.260;2023-12-22T03:54:27;98309.41;;;0.88;89.19
82418;BME280;72059;53.734;10.260;2023-12-22T03:56:54;98310.30;;;0.89;89.21
82418;BME280;72059;53.734;10.260;2023-12-22T03:59:22;98308.56;;;0.88;89.60
82418;BME280;72059;53.734;10.260;2023-12-22T04:01:52;98298.27;;;0.98;89.17
82418;BME280;72059;53.734;10.260;2023-12-22T04:04:20;98284.31;;;0.99;89.27
82418;BME280;72059;53.734;10.260;2023-12-22T04:06:52;98291.18;;;1.02;89.15
82418;BME280;72059;53.734;10.260;2023-12-22T04:09:20;98290.09;;;1.08;88.67
82418;BME280;72059;53.734;10.260;2023-12-22T04:11:47;98280.05;;;1.13;88.40
82418;BME280;72059;53.734;10.260;2023-12-22T04:14:14;98283.75;;;1.23;88.28
82418;BME280;72059;53.734;10.260;2023-12-22T04:16:43;98284.63;;;1.38;87.30
82418;BME280;72059;53.734;10.260;2023-12-22T04:19:10;98277.88;;;1.53;86.74
82418;BME280;72059;53.734;10.260;2023-12-22T04:21:37;98275.88;;;1.57;87.42
82418;BME280;72059;53.734;10.260;2023-12-22T04:24:05;98276.27;;;1.57;87.64
82418;BME280;72059;53.734;10.260;2023-12-22T04:26:33;98276.55;;;1.51;88.37
82418;BME280;72059;53.734;10.260;2023-12-22T04:29:00;98270.27;;;1.40;88.98
82418;BME280;72059;53.734;10.260;2023-12-22T04:31:28;98290.11;;;1.36;89.51
82418;BME280;72059;53.734;10.260;2023-12-22T04:33:55;98284.36;;;1.28;89.74
82418;BME280;72059;53.734;10.260;2023-12-22T04:36:23;98317.05;;;1.27;89.81
82418;BME280;72059;53.734;10.260;2023-12-22T04:38:50;98324.82;;;1.32;90.08
82418;BME280;72059;53.734;10.260;2023-12-22T04:41:17;98326.41;;;1.41;89.72
82418;BME280;72059;53.734;10.260;2023-12-22T04:43:45;98314.61;;;1.45;89.17
82418;BME280;72059;53.734;10.260;2023-12-22T04:46:12;98310.33;;;1.44;88.72
82418;BME280;72059;53.734;10.260;2023-12-22T04:48:40;98300.19;;;1.46;87.34
82418;BME280;72059;53.734;10.260;2023-12-22T04:51:07;98312.83;;;1.43;87.21
82418;BME280;72059;53.734;10.260;2023-12-22T04:53:35;98322.14;;;1.40;87.35
82418;BME280;72059;53.734;10.260;2023-12-22T04:56:02;98308.18;;;1.44;86.96
82418;BME280;72059;53.734;10.260;2023-12-22T04:58:30;98309.91;;;1.58;85.39
82418;BME280;72059;53.734;10.260;2023-12-22T05:00:57;98297.27;;;1.62;85.16
82418;BME280;72059;53.734;10.260;2023-12-22T05:03:25;98300.02;;;1.69;84.18
82418;BME280;72059;53.734;10.260;2023-12-22T05:05:53;98314.41;;;1.81;82.88
82418;BME280;72059;53.734;10.260;2023-12-22T05:08:20;98330.31;;;1.87;82.59
82418;BME280;72059;53.734;10.260;2023-12-22T05:10:47;98309.62;;;1.92;81.64
82418;BME280;72059;53.734;10.260;2023-12-22T05:13:15;98321.39;;;1.87;81.73
82418;BME280;72059;53.734;10.260;2023-12-22T05:15:42;98317.11;;;1.86;80.62
82418;BME280;72059;53.734;10.260;2023-12-22T05:18:10;98325.08;;;1.97;79.07
82418;BME280;72059;53.734;10.260;2023-12-22T05:20:37;98320.70;;;2.07;78.72
82418;BME280;72059;53.734;10.260;2023-12-22T05:23:04;98326.75;;;2.11;78.79
82418;BME280;72059;53.734;10.260;2023-12-22T05:25:32;98310.11;;;2.09;78.54
82418;BME280;72059;53.734;10.260;2023-12-22T05:27:59;98312.41;;;2.14;77.29
82418;BME280;72059;53.734;10.260;2023-12-22T05:30:27;98314.13;;;2.15;77.36
82418;BME280;72059;53.734;10.260;2023-12-22T05:32:54;98298.31;;;2.13;77.24
82418;BME280;72059;53.734;10.260;2023-12-22T05:35:21;98312.45;;;2.16;76.77
82418;BME280;72059;53.734;10.260;2023-12-22T05:37:49;98318.94;;;2.21;76.92
82418;BME280;72059;53.734;10.260;2023-12-22T05:40:16;98352.95;;;2.34;75.61
82418;BME280;72059;53.734;10.260;2023-12-22T05:42:44;98362.27;;;2.48;76.78
82418;BME280;72059;53.734;10.260;2023-12-22T05:45:11;98377.75;;;2.38;78.96
82418;BME280;72059;53.734;10.260;2023-12-22T05:47:40;98371.19;;;2.17;79.32
82418;BME280;72059;53.734;10.260;2023-12-22T05:50:08;98375.81;;;2.00;79.35
82418;BME280;72059;53.734;10.260;2023-12-22T05:52:37;98358.48;;;1.90;79.06
82418;BME280;72059;53.734;10.260;2023-12-22T05:55:04;98371.05;;;1.84;78.91
82418;BME280;72059;53.734;10.260;2023-12-22T05:57:32;98334.43;;;1.82;78.56
82418;BME280;72059;53.734;10.260;2023-12-22T05:59:59;98341.16;;;1.79;78.03
82418;BME280;72059;53.734;10.260;2023-12-22T06:02:27;98355.57;;;1.77;77.62
82418;BME280;72059;53.734;10.260;2023-12-22T06:04:54;98349.09;;;1.74;77.45
82418;BME280;72059;53.734;10.260;2023-12-22T06:07:22;98353.94;;;1.66;77.44
82418;BME280;72059;53.734;10.260;2023-12-22T06:09:50;98381.45;;;1.62;76.55
82418;BME280;72059;53.734;10.260;2023-12-22T06:12:17;98378.78;;;1.58;76.55
82418;BME280;72059;53.734;10.260;2023-12-22T06:14:45;98387.59;;;1.54;76.97
82418;BME280;72059;53.734;10.260;2023-12-22T06:17:12;98387.94;;;1.52;76.94
82418;BME280;72059;53.734;10.260;2023-12-22T06:19:39;98384.33;;;1.59;77.42
82418;BME280;72059;53.734;10.260;2023-12-22T06:22:07;98391.41;;;1.68;77.33
82418;BME280;72059;53.734;10.260;2023-12-22T06:24:37;98388.69;;;1.76;77.04
82418;BME280;72059;53.734;10.260;2023-12-22T06:27:05;98393.89;;;1.79;77.31
82418;BME280;72059;53.734;10.260;2023-12-22T06:29:34;98412.59;;;1.79;76.86
82418;BME280;72059;53.734;10.260;2023-12-22T06:32:01;98414.97;;;1.73;77.39
82418;BME280;72059;53.734;10.260;2023-12-22T06:34:30;98414.66;;;1.64;77.84
82418;BME280;72059;53.734;10.260;2023-12-22T06:36:58;98422.87;;;1.55;78.09
82418;BME280;72059;53.734;10.260;2023-12-22T06:39:25;98429.41;;;1.47;78.56
82418;BME280;72059;53.734;10.260;2023-12-22T06:41:53;98426.36;;;1.44;78.67
82418;BME280;72059;53.734;10.260;2023-12-22T06:44:20;98430.90;;;1.40;79.05
82418;BME280;72059;53.734;10.260;2023-12-22T06:46:48;98435.84;;;1.35;79.25
82418;BME280;72059;53.734;10.260;2023-12-22T06:49:15;98426.02;;;1.33;79.26
82418;BME280;72059;53.734;10.260;2023-12-22T06:51:42;98440.80;;;1.31;79.07
82418;BME280;72059;53.734;10.260;2023-12-22T06:54:10;98443.69;;;1.28;78.81
82418;BME280;72059;53.734;10.260;2023-12-22T06:56:37;98460.83;;;1.33;77.84
82418;BME280;72059;53.734;10.260;2023-12-22T06:59:06;98454.80;;;1.44;76.97
82418;BME280;72059;53.734;10.260;2023-12-22T07:01:34;98468.11;;;1.48;76.26
82418;BME280;72059;53.734;10.260;2023-12-22T07:04:03;98480.53;;;1.50;76.07
82418;BME280;72059;53.734;10.260;2023-12-22T07:06:33;98475.08;;;1.52;76.09
82418;BME280;72059;53.734;10.260;2023-12-22T07:11:51;98490.13;;;1.70;74.87
82418;BME280;72059;53.734;10.260;2023-12-22T07:14:22;98508.88;;;1.72;75.07
82418;BME280;72059;53.734;10.260;2023-12-22T07:16:49;98518.64;;;1.71;75.36
82418;BME280;72059;53.734;10.260;2023-12-22T07:19:17;98521.30;;;1.74;75.17
82418;BME280;72059;53.734;10.260;2023-12-22T07:21:44;98524.09;;;1.82;75.23
82418;BME280;72059;53.734;10.260;2023-12-22T07:24:11;98526.46;;;1.89;74.99
82418;BME280;72059;53.734;10.260;2023-12-22T07:26:39;98523.93;;;1.90;74.91
82418;BME280;72059;53.734;10.260;2023-12-22T07:29:07;98534.67;;;1.93;74.75
82418;BME280;72059;53.734;10.260;2023-12-22T07:31:34;98529.91;;;1.91;74.82
82418;BME280;72059;53.734;10.260;2023-12-22T07:34:02;98524.65;;;1.86;73.85
82418;BME280;72059;53.734;10.260;2023-12-22T07:36:29;98538.73;;;1.88;73.99
82418;BME280;72059;53.734;10.260;2023-12-22T07:38:56;98541.23;;;1.86;73.79
82418;BME280;72059;53.734;10.260;2023-12-22T07:41:25;98546.88;;;1.89;73.42
82418;BME280;72059;53.734;10.260;2023-12-22T07:43:53;98546.39;;;1.88;73.37
82418;BME280;72059;53.734;10.260;2023-12-22T07:46:21;98547.22;;;1.87;73.33
82418;BME280;72059;53.734;10.260;2023-12-22T07:48:49;98574.46;;;1.88;73.34
82418;BME280;72059;53.734;10.260;2023-12-22T07:51:16;98573.75;;;1.92;73.42
82418;BME280;72059;53.734;10.260;2023-12-22T07:53:44;98565.25;;;1.91;73.63
82418;BME280;72059;53.734;10.260;2023-12-22T07:56:11;98569.20;;;1.96;73.67
82418;BME280;72059;53.734;10.260;2023-12-22T07:58:39;98572.12;;;1.94;73.80
82418;BME280;72059;53.734;10.260;2023-12-22T08:01:06;98580.45;;;1.88;74.20
82418;BME280;72059;53.734;10.260;2023-12-22T08:03:34;98579.94;;;1.86;73.84
82418;BME280;72059;53.734;10.260;2023-12-22T08:06:01;98588.39;;;1.85;73.79
82418;BME280;72059;53.734;10.260;2023-12-22T08:08:30;98599.80;;;1.82;74.03
82418;BME280;72059;53.734;10.260;2023-12-22T08:10:59;98610.91;;;1.84;73.83
82418;BME280;72059;53.734;10.260;2023-12-22T08:13:26;98605.91;;;1.87;73.52
82418;BME280;72059;53.734;10.260;2023-12-22T08:15:54;98606.87;;;1.90;73.77
82418;BME280;72059;53.734;10.260;2023-12-22T08:18:21;98619.14;;;2.01;73.44
82418;BME280;72059;53.734;10.260;2023-12-22T08:20:49;98603.94;;;2.17;72.63
82418;BME280;72059;53.734;10.260;2023-12-22T08:23:16;98619.26;;;2.30;72.65
82418;BME280;72059;53.734;10.260;2023-12-22T08:25:43;98609.83;;;2.42;72.93
82418;BME280;72059;53.734;10.260;2023-12-22T08:28:11;98630.58;;;2.51;73.91
82418;BME280;72059;53.734;10.260;2023-12-22T08:30:38;98627.15;;;2.51;74.47
82418;BME280;72059;53.734;10.260;2023-12-22T08:33:06;98630.48;;;2.48;75.35
82418;BME280;72059;53.734;10.260;2023-12-22T08:35:33;98637.02;;;2.40;76.48
82418;BME280;72059;53.734;10.260;2023-12-22T08:38:01;98628.70;;;2.33;77.34
82418;BME280;72059;53.734;10.260;2023-12-22T08:40:28;98631.09;;;2.28;78.06
82418;BME280;72059;53.734;10.260;2023-12-22T08:42:56;98630.42;;;2.21;78.69
82418;BME280;72059;53.734;10.260;2023-12-22T08:45:27;98639.23;;;2.16;79.03
82418;BME280;72059;53.734;10.260;2023-12-22T08:47:55;98635.69;;;2.12;79.26
82418;BME280;72059;53.734;10.260;2023-12-22T08:50:23;98641.16;;;2.10;79.37
82418;BME280;72059;53.734;10.260;2023-12-22T08:52:50;98639.46;;;2.11;79.46
82418;BME280;72059;53.734;10.260;2023-12-22T08:55:18;98649.78;;;2.14;79.31
82418;BME280;72059;53.734;10.260;2023-12-22T08:57:45;98648.30;;;2.21;79.37
82418;BME280;72059;53.734;10.260;2023-12-22T09:00:13;98661.63;;;2.38;78.83
82418;BME280;72059;53.734;10.260;2023-12-22T09:02:41;98670.52;;;2.49;78.42
82418;BME280;72059;53.734;10.260;2023-12-22T09:05:08;98688.05;;;2.51;79.43
82418;BME280;72059;53.734;10.260;2023-12-22T09:07:36;98689.62;;;2.35;81.38
82418;BME280;72059;53.734;10.260;2023-12-22T09:10:04;98706.44;;;2.03;83.98
82418;BME280;72059;53.734;10.260;2023-12-22T09:12:31;98711.89;;;1.77;86.40
82418;BME280;72059;53.734;10.260;2023-12-22T09:14:58;98722.63;;;1.57;87.82
82418;BME280;72059;53.734;10.260;2023-12-22T09:17:27;98713.37;;;1.47;89.23
82418;BME280;72059;53.734;10.260;2023-12-22T09:19:54;98728.42;;;1.41;89.91
82418;BME280;72059;53.734;10.260;2023-12-22T09:22:22;98733.77;;;1.36;90.66
82418;BME280;72059;53.734;10.260;2023-12-22T09:24:49;98728.09;;;1.32;90.93
82418;BME280;72059;53.734;10.260;2023-12-22T09:27:17;98732.24;;;1.30;90.90
82418;BME280;72059;53.734;10.260;2023-12-22T09:29:44;98735.22;;;1.29;90.64
82418;BME280;72059;53.734;10.260;2023-12-22T09:32:12;98732.24;;;1.30;90.80
82418;BME280;72059;53.734;10.260;2023-12-22T09:34:39;98724.77;;;1.23;91.10
82418;BME280;72059;53.734;10.260;2023-12-22T09:37:06;98737.27;;;1.17;91.22
82418;BME280;72059;53.734;10.260;2023-12-22T09:39:34;98728.94;;;1.09;91.33
82418;BME280;72059;53.734;10.260;2023-12-22T09:42:01;98739.83;;;1.05;90.88
82418;BME280;72059;53.734;10.260;2023-12-22T09:44:31;98743.00;;;0.99;90.89
82418;BME280;72059;53.734;10.260;2023-12-22T09:47:03;98743.09;;;1.02;90.82
82418;BME280;72059;53.734;10.260;2023-12-22T09:49:33;98721.43;;;1.02;91.07
82418;BME280;72059;53.734;10.260;2023-12-22T09:52:02;98734.84;;;1.20;90.62
82418;BME280;72059;53.734;10.260;2023-12-22T09:54:31;98743.07;;;1.24;89.97
82418;BME280;72059;53.734;10.260;2023-12-22T09:57:00;98736.11;;;1.20;89.89
82418;BME280;72059;53.734;10.260;2023-12-22T09:59:29;98732.66;;;1.18;90.19
82418;BME280;72059;53.734;10.260;2023-12-22T10:01:57;98718.96;;;1.15;90.24
82418;BME280;72059;53.734;10.260;2023-12-22T10:04:27;98715.56;;;1.15;90.56
82418;BME280;72059;53.734;10.260;2023-12-22T10:06:57;98714.75;;;1.16;90.48
82418;BME280;72059;53.734;10.260;2023-12-22T10:09:27;98722.52;;;1.19;90.10
82418;BME280;72059;53.734;10.260;2023-12-22T10:11:55;98720.25;;;1.27;89.73
82418;BME280;72059;53.734;10.260;2023-12-22T10:14:24;98724.96;;;1.39;89.48
82418;BME280;72059;53.734;10.260;2023-12-22T10:16:54;98717.58;;;1.58;88.23
82418;BME280;72059;53.734;10.260;2023-12-22T10:19:22;98730.52;;;1.74;87.52
82418;BME280;72059;53.734;10.260;2023-12-22T10:21:49;98729.44;;;1.80;86.77
82418;BME280;72059;53.734;10.260;2023-12-22T10:27:09;98721.46;;;1.71;86.48
82418;BME280;72059;53.734;10.260;2023-12-22T10:29:36;98729.45;;;1.69;86.43
82418;BME280;72059;53.734;10.260;2023-12-22T10:32:04;98717.64;;;1.71;85.37
82418;BME280;72059;53.734;10.260;2023-12-22T10:34:32;98731.67;;;1.71;85.10
82418;BME280;72059;53.734;10.260;2023-12-22T10:37:00;98733.34;;;1.71;85.19
82418;BME280;72059;53.734;10.260;2023-12-22T10:39:29;98736.31;;;1.70;85.47
82418;BME280;72059;53.734;10.260;2023-12-22T10:41:58;98735.04;;;1.70;85.16
82418;BME280;72059;53.734;10.260;2023-12-22T10:44:27;98746.98;;;1.71;84.61
82418;BME280;72059;53.734;10.260;2023-12-22T10:46:55;98718.20;;;1.75;83.68
82418;BME280;72059;53.734;10.260;2023-12-22T10:49:23;98728.28;;;1.84;82.70
82418;BME280;72059;53.734;10.260;2023-12-22T10:51:51;98733.20;;;1.90;81.97
82418;BME280;72059;53.734;10.260;2023-12-22T10:54:19;98734.53;;;1.92;81.83
82418;BME280;72059;53.734;10.260;2023-12-22T10:56:47;98737.20;;;1.95;82.08
82418;BME280;72059;53.734;10.260;2023-12-22T10:59:16;98736.86;;;1.97;82.05
82418;BME280;72059;53.734;10.260;2023-12-22T11:01:44;98740.75;;;1.99;82.14
82418;BME280;72059;53.734;10.260;2023-12-22T11:04:17;98743.81;;;2.01;81.72
82418;BME280;72059;53.734;10.260;2023-12-22T11:06:43;98735.78;;;2.03;81.28
82418;BME280;72059;53.734;10.260;2023-12-22T11:09:14;98732.08;;;2.07;80.83
82418;BME280;72059;53.734;10.260;2023-12-22T11:11:43;98727.59;;;2.12;79.97
82418;BME280;72059;53.734;10.260;2023-12-22T11:14:12;98746.34;;;2.13;78.21
82418;BME280;72059;53.734;10.260;2023-12-22T11:16:41;98758.73;;;2.15;78.12
82418;BME280;72059;53.734;10.260;2023-12-22T11:19:11;98769.46;;;2.17;77.52
82418;BME280;72059;53.734;10.260;2023-12-22T11:21:40;98763.65;;;2.22;76.42
82418;BME280;72059;53.734;10.260;2023-12-22T11:24:08;98766.45;;;2.41;74.52
82418;BME280;72059;53.734;10.260;2023-12-22T11:26:39;98772.72;;;2.62;74.84
82418;BME280;72059;53.734;10.260;2023-12-22T11:29:10;98757.02;;;2.90;73.25
82418;BME280;72059;53.734;10.260;2023-12-22T11:31:39;98756.56;;;3.17;72.67
82418;BME280;72059;53.734;10.260;2023-12-22T11:34:08;98765.64;;;3.34;71.59
82418;BME280;72059;53.734;10.260;2023-12-22T11:36:36;98769.05;;;3.48;71.99
82418;BME280;72059;53.734;10.260;2023-12-22T11:39:05;98773.06;;;3.54;70.90
82418;BME280;72059;53.734;10.260;2023-12-22T11:41:34;98747.02;;;3.53;69.32
82418;BME280;72059;53.734;10.260;2023-12-22T11:44:04;98744.97;;;3.70;68.66
82418;BME280;72059;53.734;10.260;2023-12-22T11:46:32;98753.34;;;3.95;69.40
82418;BME280;72059;53.734;10.260;2023-12-22T11:49:00;98746.47;;;4.09;69.51
82418;BME280;72059;53.734;10.260;2023-12-22T11:51:32;98740.71;;;4.18;69.80
82418;BME280;72059;53.734;10.260;2023-12-22T11:54:03;98734.94;;;4.25;68.77
82418;BME280;72059;53.734;10.260;2023-12-22T11:56:30;98747.92;;;4.31;68.36
82418;BME280;72059;53.734;10.260;2023-12-22T11:58:58;98736.44;;;4.33;66.89
82418;BME280;72059;53.734;10.260;2023-12-22T12:01:27;98732.73;;;4.39;67.95
82418;BME280;72059;53.734;10.260;2023-12-22T12:03:57;98737.86;;;4.39;67.52
82418;BME280;72059;53.734;10.260;2023-12-22T12:08:57;98730.08;;;4.34;67.29
82418;BME280;72059;53.734;10.260;2023-12-22T12:14:14;98722.70;;;4.31;68.03
82418;BME280;72059;53.734;10.260;2023-12-22T12:16:42;98722.66;;;4.29;67.97
82418;BME280;72059;53.734;10.260;2023-12-22T12:19:10;98733.73;;;4.28;66.97
82418;BME280;72059;53.734;10.260;2023-12-22T12:21:39;98735.72;;;4.22;66.97
82418;BME280;72059;53.734;10.260;2023-12-22T12:24:08;98721.23;;;4.23;67.38
82418;BME280;72059;53.734;10.260;2023-12-22T12:26:35;98740.94;;;4.26;67.79
82418;BME280;72059;53.734;10.260;2023-12-22T12:29:03;98736.34;;;4.30;68.02
82418;BME280;72059;53.734;10.260;2023-12-22T12:31:35;98733.48;;;4.35;67.64
82418;BME280;72059;53.734;10.260;2023-12-22T12:34:05;98731.40;;;4.36;67.06
82418;BME280;72059;53.734;10.260;2023-12-22T12:36:34;98726.27;;;4.36;67.15
82418;BME280;72059;53.734;10.260;2023-12-22T12:39:09;98732.78;;;4.41;67.42
82418;BME280;72059;53.734;10.260;2023-12-22T12:41:42;98731.45;;;4.39;67.12
82418;BME280;72059;53.734;10.260;2023-12-22T12:44:13;98717.75;;;4.37;66.05
82418;BME280;72059;53.734;10.260;2023-12-22T12:46:41;98725.73;;;4.32;66.20
82418;BME280;72059;53.734;10.260;2023-12-22T12:49:11;98739.21;;;4.24;66.05
82418;BME280;72059;53.734;10.260;2023-12-22T12:51:46;98734.65;;;4.14;65.84
82418;BME280;72059;53.734;10.260;2023-12-22T12:54:14;98721.22;;;4.07;65.82
82418;BME280;72059;53.734;10.260;2023-12-22T12:56:43;98730.74;;;3.96;66.57
82418;BME280;72059;53.734;10.260;2023-12-22T12:59:16;98726.16;;;3.84;67.11
82418;BME280;72059;53.734;10.260;2023-12-22T13:01:47;98724.54;;;3.72;67.79
82418;BME280;72059;53.734;10.260;2023-12-22T13:04:15;98737.78;;;3.58;68.31
82418;BME280;72059;53.734;10.260;2023-12-22T13:06:46;98728.19;;;3.51;68.79
82418;BME280;72059;53.734;10.260;2023-12-22T13:09:14;98728.02;;;3.45;69.45
82418;BME280;72059;53.734;10.260;2023-12-22T13:11:46;98737.66;;;3.39;70.11
82418;BME280;72059;53.734;10.260;2023-12-22T13:14:24;98726.83;;;3.33;70.32
82418;BME280;72059;53.734;10.260;2023-12-22T13:16:55;98732.34;;;3.33;71.10